createdAt,value
2022-11-10T00:00:06.738Z,9.00
2022-11-10T00:02:53.283Z,8.90
2022-11-10T00:05:40.611Z,8.90
2022-11-10T00:08:27.300Z,8.80
2022-11-10T00:11:14.056Z,8.80
2022-11-10T00:14:19.117Z,8.80
2022-11-10T00:17:05.893Z,8.80
2022-11-10T00:19:52.253Z,8.80
2022-11-10T00:22:39.889Z,8.80
2022-11-10T00:25:28.190Z,8.80
2022-11-10T00:28:14.893Z,8.80
2022-11-10T00:31:07.154Z,8.80
2022-11-10T00:33:53.404Z,8.70
2022-11-10T00:36:39.848Z,8.70
2022-11-10T00:39:26.252Z,8.70
2022-11-10T00:42:12.705Z,8.60
2022-11-10T00:44:59.225Z,8.60
2022-11-10T00:47:48.048Z,8.50
2022-11-10T00:50:34.711Z,8.50
2022-11-10T00:53:21.372Z,8.50
2022-11-10T00:56:08.034Z,8.60
2022-11-10T00:58:54.277Z,8.60
2022-11-10T01:01:40.792Z,8.60
2022-11-10T01:04:28.533Z,8.60
2022-11-10T01:07:14.828Z,8.70
2022-11-10T01:10:01.117Z,8.70
2022-11-10T01:12:47.529Z,8.60
2022-11-10T01:15:33.822Z,8.70
2022-11-10T01:18:20.173Z,8.70
2022-11-10T01:21:08.405Z,8.70
2022-11-10T01:23:55.236Z,8.70
2022-11-10T01:26:41.895Z,8.80
2022-11-10T01:29:28.236Z,8.80
2022-11-10T01:32:14.716Z,8.90
2022-11-10T01:35:01.531Z,8.90
2022-11-10T01:37:49.331Z,9.00
2022-11-10T01:40:35.645Z,9.00
2022-11-10T01:43:22.315Z,9.00
2022-11-10T01:46:11.221Z,9.00
2022-11-10T01:49:00.948Z,9.00
2022-11-10T01:51:51.585Z,9.00
2022-11-10T01:54:43.800Z,9.00
2022-11-10T01:57:30.244Z,9.10
2022-11-10T02:00:17.474Z,9.10
2022-11-10T02:03:09.537Z,9.10
2022-11-10T02:05:57.116Z,9.20
2022-11-10T02:08:44.441Z,9.20
2022-11-10T02:11:34.259Z,9.20
2022-11-10T02:14:20.600Z,9.30
2022-11-10T02:17:07.201Z,9.30
2022-11-10T02:19:53.620Z,9.20
2022-11-10T02:22:41.460Z,9.30
2022-11-10T02:25:33.416Z,9.30
2022-11-10T02:28:20.224Z,9.30
2022-11-10T02:31:08.540Z,9.30
2022-11-10T02:33:55.131Z,9.20
2022-11-10T02:36:41.508Z,9.20
2022-11-10T02:39:29.097Z,9.10
2022-11-10T02:42:15.480Z,9.20
2022-11-10T02:45:01.985Z,9.10
2022-11-10T02:47:48.540Z,9.10
2022-11-10T02:50:35.198Z,9.10
2022-11-10T02:53:21.990Z,9.20
2022-11-10T02:56:10.488Z,9.20
2022-11-10T02:58:56.846Z,9.20
2022-11-10T03:01:43.510Z,9.20
2022-11-10T03:04:30.145Z,9.20
2022-11-10T03:07:16.476Z,9.30
2022-11-10T03:10:03.061Z,9.20
2022-11-10T03:12:55.188Z,9.20
2022-11-10T03:15:42.023Z,9.20
2022-11-10T03:18:28.359Z,9.20
2022-11-10T03:21:14.661Z,9.20
2022-11-10T03:24:01.010Z,9.10
2022-11-10T03:26:47.167Z,9.10
2022-11-10T03:29:34.996Z,9.10
2022-11-10T03:32:21.417Z,9.10
2022-11-10T03:35:08.286Z,9.10
2022-11-10T03:37:54.683Z,9.00
2022-11-10T03:41:04.216Z,9.10
2022-11-10T03:43:47.624Z,9.00
2022-11-10T03:46:35.379Z,9.00
2022-11-10T03:49:22.057Z,9.00
2022-11-10T03:52:08.311Z,9.00
2022-11-10T03:54:58.029Z,9.00
2022-11-10T03:57:46.940Z,9.00
2022-11-10T04:00:33.410Z,9.00
2022-11-10T04:03:21.637Z,9.00
2022-11-10T04:06:27.164Z,9.00
2022-11-10T04:09:13.730Z,8.90
2022-11-10T04:12:20.787Z,8.90
2022-11-10T04:15:29.796Z,9.00
2022-11-10T04:18:24.488Z,9.00
2022-11-10T04:21:12.987Z,8.90
2022-11-10T04:23:59.647Z,9.00
2022-11-10T04:26:48.484Z,9.00
2022-11-10T04:29:35.525Z,9.00
2022-11-10T04:32:21.915Z,9.00
2022-11-10T04:35:09.001Z,8.90
2022-11-10T04:37:56.789Z,9.00
2022-11-10T04:40:43.267Z,9.00
2022-11-10T04:43:29.811Z,9.00
2022-11-10T04:46:23.053Z,9.00
2022-11-10T04:49:09.502Z,9.00
2022-11-10T04:51:56.067Z,9.00
2022-11-10T04:54:43.792Z,9.00
2022-11-10T04:57:30.218Z,8.90
2022-11-10T05:00:17.713Z,8.80
2022-11-10T05:03:06.492Z,8.90
2022-11-10T05:05:53.248Z,8.80
2022-11-10T05:08:42.047Z,8.80
2022-11-10T05:11:29.891Z,8.80
2022-11-10T05:14:16.190Z,8.80
2022-11-10T05:17:02.537Z,8.80
2022-11-10T05:19:49.055Z,8.90
2022-11-10T05:22:35.577Z,8.80
2022-11-10T05:25:22.088Z,8.90
2022-11-10T05:28:11.662Z,8.90
2022-11-10T05:30:58.341Z,8.90
2022-11-10T05:33:44.852Z,8.90
2022-11-10T05:36:31.048Z,8.90
2022-11-10T05:39:17.423Z,8.90
2022-11-10T05:42:04.165Z,8.90
2022-11-10T05:44:52.152Z,9.00
2022-11-10T05:47:38.921Z,9.10
2022-11-10T05:50:26.198Z,9.10
2022-11-10T05:53:12.765Z,9.20
2022-11-10T05:55:59.449Z,9.30
2022-11-10T05:58:43.477Z,9.30
2022-11-10T06:01:31.475Z,9.30
2022-11-10T06:04:18.201Z,9.30
2022-11-10T06:07:05.037Z,9.30
2022-11-10T06:09:51.498Z,9.30
2022-11-10T06:12:37.995Z,9.30
2022-11-10T06:15:24.843Z,9.30
2022-11-10T06:18:12.781Z,9.30
2022-11-10T06:20:59.638Z,9.30
2022-11-10T06:23:46.422Z,9.30
2022-11-10T06:26:32.769Z,9.30
2022-11-10T06:29:24.108Z,9.30
2022-11-10T06:32:12.881Z,9.30
2022-11-10T06:35:01.077Z,9.30
2022-11-10T06:37:48.179Z,9.30
2022-11-10T06:40:35.447Z,9.30
2022-11-10T06:43:25.298Z,9.10
2022-11-10T06:46:12.385Z,9.10
2022-11-10T06:48:58.949Z,9.10
2022-11-10T06:51:46.976Z,9.00
2022-11-10T06:54:33.542Z,9.00
2022-11-10T06:57:20.100Z,9.00
2022-11-10T07:00:08.551Z,9.10
2022-11-10T07:03:05.403Z,9.10
2022-11-10T07:05:52.267Z,9.10
2022-11-10T07:08:40.098Z,9.10
2022-11-10T07:11:26.563Z,9.10
2022-11-10T07:14:13.230Z,9.10
2022-11-10T07:16:59.712Z,9.20
2022-11-10T07:19:46.156Z,9.10
2022-11-10T07:22:32.787Z,9.20
2022-11-10T07:25:20.611Z,9.20
2022-11-10T07:28:10.327Z,9.20
2022-11-10T07:30:57.023Z,9.20
2022-11-10T07:33:44.008Z,9.30
2022-11-10T07:36:30.558Z,9.40
2022-11-10T07:39:17.126Z,9.40
2022-11-10T07:42:05.395Z,9.30
2022-11-10T07:44:51.867Z,9.30
2022-11-10T07:47:38.310Z,9.30
2022-11-10T07:50:24.917Z,9.40
2022-11-10T07:53:12.955Z,9.40
2022-11-10T07:56:00.033Z,9.40
2022-11-10T07:58:48.344Z,9.50
2022-11-10T08:01:35.308Z,9.60
2022-11-10T08:04:21.912Z,9.60
2022-11-10T08:07:08.573Z,9.60
2022-11-10T08:09:55.336Z,9.70
2022-11-10T08:12:41.900Z,9.80
2022-11-10T08:15:31.182Z,9.80
2022-11-10T08:18:20.988Z,9.80
2022-11-10T08:21:07.805Z,9.80
2022-11-10T08:23:54.563Z,9.80
2022-11-10T08:26:41.578Z,9.90
2022-11-10T08:29:27.971Z,10.00
2022-11-10T08:32:15.895Z,9.90
2022-11-10T08:35:03.609Z,9.90
2022-11-10T08:37:50.017Z,10.00
2022-11-10T08:40:36.896Z,9.90
2022-11-10T08:43:24.651Z,9.90
2022-11-10T08:46:12.026Z,10.00
2022-11-10T08:48:59.786Z,10.00
2022-11-10T08:51:46.162Z,10.00
2022-11-10T08:54:32.777Z,10.00
2022-11-10T08:57:19.235Z,10.10
2022-11-10T09:00:06.842Z,10.20
2022-11-10T09:02:53.248Z,10.20
2022-11-10T09:05:41.687Z,10.20
2022-11-10T09:08:28.561Z,10.30
2022-11-10T09:11:15.027Z,10.30
2022-11-10T09:14:01.735Z,10.40
2022-11-10T09:16:48.444Z,10.40
2022-11-10T09:19:35.030Z,10.50
2022-11-10T09:22:22.747Z,10.50
2022-11-10T09:25:10.029Z,10.60
2022-11-10T09:27:56.508Z,10.60
2022-11-10T09:30:43.789Z,10.70
2022-11-10T09:33:30.503Z,10.70
2022-11-10T09:36:16.845Z,10.70
2022-11-10T09:39:04.796Z,10.70
2022-11-10T09:41:51.613Z,10.80
2022-11-10T09:44:46.736Z,10.80
2022-11-10T09:47:56.941Z,10.90
2022-11-10T09:50:49.168Z,10.90
2022-11-10T09:53:40.584Z,10.90
2022-11-10T09:56:33.270Z,11.30
2022-11-10T09:59:32.254Z,10.80
2022-11-10T10:02:30.627Z,10.80
2022-11-10T10:05:41.459Z,10.80
2022-11-10T10:08:40.814Z,10.80
2022-11-10T10:11:43.187Z,10.80
2022-11-10T10:14:52.514Z,10.70
2022-11-10T10:17:43.533Z,10.60
2022-11-10T10:20:39.487Z,10.60
2022-11-10T10:24:02.262Z,10.50
2022-11-10T10:26:49.223Z,10.50
2022-11-10T10:29:41.084Z,10.50
2022-11-10T10:32:28.288Z,10.60
2022-11-10T10:35:16.466Z,10.80
2022-11-10T10:38:05.225Z,10.80
2022-11-10T10:40:54.227Z,10.70
2022-11-10T10:43:46.312Z,10.70
2022-11-10T10:46:45.436Z,10.80
2022-11-10T10:49:33.583Z,10.90
2022-11-10T10:52:24.686Z,10.90
2022-11-10T10:55:14.075Z,10.90
2022-11-10T10:58:02.982Z,11.00
2022-11-10T11:00:52.888Z,10.90
2022-11-10T11:03:43.041Z,10.80
2022-11-10T11:06:30.353Z,10.90
2022-11-10T11:09:19.802Z,10.90
2022-11-10T11:12:08.839Z,10.90
2022-11-10T11:15:12.826Z,10.90
2022-11-10T11:18:02.731Z,10.90
2022-11-10T11:20:58.910Z,10.90
2022-11-10T11:24:08.145Z,10.90
2022-11-10T11:27:00.665Z,10.90
2022-11-10T11:30:05.634Z,10.90
2022-11-10T11:33:29.008Z,10.90
2022-11-10T11:36:28.887Z,10.80
2022-11-10T11:39:39.236Z,10.80
2022-11-10T11:42:39.284Z,10.80
2022-11-10T11:45:37.443Z,10.80
2022-11-10T11:48:52.235Z,10.90
2022-11-10T11:51:46.400Z,10.90
2022-11-10T11:54:53.196Z,10.90
2022-11-10T11:57:51.059Z,10.90
2022-11-10T12:00:46.240Z,10.90
2022-11-10T12:04:01.384Z,11.00
2022-11-10T12:06:57.920Z,10.90
2022-11-10T12:09:47.966Z,10.90
2022-11-10T12:12:57.835Z,10.90
2022-11-10T12:15:54.503Z,10.90
2022-11-10T12:18:49.953Z,10.90
2022-11-10T12:21:46.875Z,10.80
2022-11-10T12:24:47.319Z,10.80
2022-11-10T12:27:36.484Z,10.90
2022-11-10T12:30:23.810Z,10.90
2022-11-10T12:33:19.864Z,10.90
2022-11-10T12:36:09.565Z,10.90
2022-11-10T12:39:04.124Z,10.90
2022-11-10T12:41:56.846Z,10.90
2022-11-10T12:44:59.403Z,10.90
2022-11-10T12:47:47.598Z,10.90
2022-11-10T12:50:45.498Z,10.90
2022-11-10T12:53:36.520Z,11.00
2022-11-10T12:56:31.792Z,11.20
2022-11-10T12:59:28.717Z,11.00
2022-11-10T13:02:25.254Z,11.00
2022-11-10T13:05:25.622Z,11.00
2022-11-10T13:08:27.100Z,11.00
2022-11-10T13:11:30.302Z,11.10
2022-11-10T13:14:26.100Z,11.10
2022-11-10T13:18:00.357Z,11.10
2022-11-10T13:20:53.983Z,11.10
2022-11-10T13:24:19.991Z,11.20
2022-11-10T13:27:12.197Z,11.20
2022-11-10T13:30:00.198Z,11.20
2022-11-10T13:32:46.687Z,11.20
2022-11-10T13:35:56.051Z,11.80
2022-11-10T13:38:44.203Z,11.20
2022-11-10T13:41:34.481Z,11.20
2022-11-10T13:44:26.528Z,11.20
2022-11-10T13:47:35.937Z,11.30
2022-11-10T13:50:52.469Z,11.20
2022-11-10T13:53:50.694Z,11.20
2022-11-10T13:56:52.840Z,11.30
2022-11-10T13:59:49.055Z,11.40
2022-11-10T14:02:57.499Z,11.30
2022-11-10T14:06:15.516Z,11.30
2022-11-10T14:09:07.513Z,11.30
2022-11-10T14:11:57.798Z,11.20
2022-11-10T14:14:55.557Z,11.30
2022-11-10T14:17:47.868Z,11.30
2022-11-10T14:20:46.883Z,11.20
2022-11-10T14:23:38.032Z,11.10
2022-11-10T14:26:31.324Z,11.20
2022-11-10T14:29:34.048Z,11.10
2022-11-10T14:32:24.246Z,11.10
2022-11-10T14:35:21.724Z,11.10
2022-11-10T14:38:20.619Z,11.10
2022-11-10T14:41:16.271Z,11.10
2022-11-10T14:44:06.214Z,11.10
2022-11-10T14:46:53.377Z,11.00
2022-11-10T14:49:40.111Z,11.00
2022-11-10T14:52:26.477Z,11.00
2022-11-10T14:55:18.479Z,11.00
2022-11-10T14:58:14.876Z,11.00
2022-11-10T15:01:05.494Z,11.00
2022-11-10T15:03:52.750Z,11.00
2022-11-10T15:06:45.747Z,11.20
2022-11-10T15:09:33.954Z,11.00
2022-11-10T15:12:24.384Z,10.90
2022-11-10T15:15:22.639Z,10.80
2022-11-10T15:18:25.851Z,10.80
2022-11-10T15:21:14.130Z,10.70
2022-11-10T15:24:03.024Z,10.80
2022-11-10T15:26:49.548Z,10.60
2022-11-10T15:29:36.307Z,10.60
2022-11-10T15:32:25.004Z,10.50
2022-11-10T15:35:29.846Z,10.50
2022-11-10T15:38:29.432Z,10.40
2022-11-10T15:41:27.057Z,10.40
2022-11-10T15:44:19.891Z,10.30
2022-11-10T15:47:07.658Z,10.30
2022-11-10T15:49:54.279Z,10.10
2022-11-10T15:52:42.362Z,10.20
2022-11-10T15:55:29.664Z,10.20
2022-11-10T15:58:19.042Z,10.30
2022-11-10T16:01:07.063Z,10.20
2022-11-10T16:03:53.856Z,10.20
2022-11-10T16:06:40.691Z,10.20
2022-11-10T16:09:28.834Z,10.20
2022-11-10T16:12:20.703Z,10.20
2022-11-10T16:15:12.881Z,10.30
2022-11-10T16:17:59.889Z,10.20
2022-11-10T16:20:46.563Z,10.30
2022-11-10T16:23:33.273Z,10.20
2022-11-10T16:26:23.815Z,10.20
2022-11-10T16:29:13.723Z,10.20
2022-11-10T16:32:00.421Z,10.20
2022-11-10T16:34:47.129Z,10.20
2022-11-10T16:37:35.046Z,10.10
2022-11-10T16:40:24.061Z,10.00
2022-11-10T16:43:16.739Z,10.00
2022-11-10T16:46:05.898Z,9.90
2022-11-10T16:48:55.646Z,9.80
2022-11-10T16:51:48.522Z,9.70
2022-11-10T16:54:35.548Z,9.60
2022-11-10T16:57:21.956Z,9.60
2022-11-10T17:00:11.611Z,9.50
2022-11-10T17:03:04.249Z,9.50
2022-11-10T17:05:50.998Z,9.50
2022-11-10T17:08:37.537Z,9.40
2022-11-10T17:11:24.134Z,9.40
2022-11-10T17:14:12.354Z,9.30
2022-11-10T17:17:00.191Z,9.30
2022-11-10T17:19:48.363Z,9.20
2022-11-10T17:22:36.341Z,9.20
2022-11-10T17:25:26.823Z,9.20
2022-11-10T17:28:14.764Z,9.10
2022-11-10T17:31:01.182Z,9.00
2022-11-10T17:33:48.990Z,8.90
2022-11-10T17:36:35.518Z,8.80
2022-11-10T17:39:22.501Z,8.80
2022-11-10T17:42:13.449Z,8.70
2022-11-10T17:45:00.094Z,8.60
2022-11-10T17:47:46.979Z,8.50
2022-11-10T17:50:35.785Z,8.40
2022-11-10T17:53:25.070Z,8.30
2022-11-10T17:56:12.039Z,8.20
2022-11-10T17:58:58.407Z,8.10
2022-11-10T18:01:44.886Z,8.00
2022-11-10T18:04:31.655Z,8.00
2022-11-10T18:07:19.599Z,7.90
2022-11-10T18:10:06.972Z,7.90
2022-11-10T18:12:53.793Z,7.80
2022-11-10T18:15:43.411Z,7.80
2022-11-10T18:18:30.005Z,7.80
2022-11-10T18:21:16.630Z,7.80
2022-11-10T18:24:04.865Z,7.80
2022-11-10T18:26:51.279Z,7.80
2022-11-10T18:29:37.610Z,7.80
2022-11-10T18:32:24.214Z,7.80
2022-11-10T18:35:10.814Z,7.80
2022-11-10T18:37:58.303Z,7.80
2022-11-10T18:40:46.175Z,7.90
2022-11-10T18:43:32.997Z,7.90
2022-11-10T18:46:19.307Z,7.90
2022-11-10T18:49:05.731Z,7.90
2022-11-10T18:51:52.383Z,8.00
2022-11-10T18:54:38.821Z,8.00
2022-11-10T18:57:26.676Z,8.00
2022-11-10T19:00:14.161Z,8.10
2022-11-10T19:03:00.692Z,8.20
2022-11-10T19:05:57.221Z,8.40
2022-11-10T19:08:45.604Z,8.40
2022-11-10T19:11:32.991Z,8.50
2022-11-10T19:14:21.277Z,8.60
2022-11-10T19:17:07.965Z,8.60
2022-11-10T19:19:56.706Z,8.60
2022-11-10T19:22:43.266Z,8.70
2022-11-10T19:25:30.106Z,8.70
2022-11-10T19:28:16.871Z,8.70
2022-11-10T19:31:07.371Z,8.60
2022-11-10T19:33:55.881Z,8.60
2022-11-10T19:36:42.594Z,8.60
2022-11-10T19:39:29.445Z,8.50
2022-11-10T19:42:15.908Z,8.50
2022-11-10T19:45:02.597Z,8.50
2022-11-10T19:47:50.265Z,8.50
2022-11-10T19:50:36.492Z,8.50
2022-11-10T19:53:23.156Z,8.40
2022-11-10T19:56:13.794Z,8.50
2022-11-10T19:59:00.942Z,8.50
2022-11-10T20:01:47.524Z,8.30
2022-11-10T20:04:56.131Z,8.40
2022-11-10T20:07:59.863Z,8.40
2022-11-10T20:10:47.006Z,8.40
2022-11-10T20:13:33.594Z,8.40
2022-11-10T20:16:20.206Z,8.40
2022-11-10T20:19:06.768Z,8.40
2022-11-10T20:21:54.448Z,8.40
2022-11-10T20:24:40.759Z,8.30
2022-11-10T20:27:27.218Z,8.40
2022-11-10T20:30:13.940Z,8.30
2022-11-10T20:33:01.158Z,8.30
2022-11-10T20:35:47.561Z,8.20
2022-11-10T20:38:35.647Z,8.20
2022-11-10T20:41:24.112Z,8.20
2022-11-10T20:44:10.784Z,8.30
2022-11-10T20:46:57.240Z,8.30
2022-11-10T20:49:43.531Z,8.30
2022-11-10T20:52:30.016Z,8.30
2022-11-10T20:55:22.083Z,8.30
2022-11-10T20:58:17.817Z,8.30
2022-11-10T21:01:06.431Z,8.30
2022-11-10T21:03:53.321Z,8.20
2022-11-10T21:06:39.936Z,8.20
2022-11-10T21:09:27.558Z,8.20
2022-11-10T21:12:44.086Z,8.20
2022-11-10T21:15:30.719Z,8.10
2022-11-10T21:18:17.422Z,8.20
2022-11-10T21:21:04.788Z,8.10
2022-11-10T21:23:56.929Z,8.10
2022-11-10T21:26:43.291Z,8.10
2022-11-10T21:29:31.192Z,8.10
2022-11-10T21:32:17.619Z,8.10
2022-11-10T21:35:04.280Z,8.10
2022-11-10T21:37:51.036Z,8.10
2022-11-10T21:40:37.600Z,8.10
2022-11-10T21:43:24.375Z,8.00
2022-11-10T21:46:12.302Z,8.00
2022-11-10T21:49:03.148Z,8.00
2022-11-10T21:51:53.600Z,8.10
2022-11-10T21:54:40.015Z,8.00
2022-11-10T21:57:26.322Z,8.00
2022-11-10T22:00:14.363Z,8.00
2022-11-10T22:03:03.865Z,8.00
2022-11-10T22:05:50.596Z,8.00
2022-11-10T22:08:37.775Z,8.00
2022-11-10T22:11:40.803Z,7.90
2022-11-10T22:14:45.118Z,7.90
2022-11-10T22:17:48.985Z,7.90
2022-11-10T22:20:36.935Z,7.80
2022-11-10T22:23:43.708Z,7.80
2022-11-10T22:26:30.491Z,7.80
2022-11-10T22:29:16.923Z,7.80
2022-11-10T22:32:03.840Z,7.70
2022-11-10T22:34:50.323Z,7.70
2022-11-10T22:37:38.077Z,7.70
2022-11-10T22:40:41.787Z,7.60
2022-11-10T22:43:45.776Z,7.50
2022-11-10T22:46:34.010Z,7.50
2022-11-10T22:49:22.008Z,7.50
2022-11-10T22:52:08.570Z,7.40
2022-11-10T22:54:57.116Z,7.50
2022-11-10T22:57:43.727Z,7.40
2022-11-10T23:00:30.173Z,7.40
2022-11-10T23:03:16.689Z,7.40
2022-11-10T23:06:03.929Z,7.40
2022-11-10T23:08:50.580Z,7.30
2022-11-10T23:11:38.563Z,7.20
2022-11-10T23:14:25.274Z,7.10
2022-11-10T23:17:11.737Z,7.10
2022-11-10T23:19:58.292Z,7.10
2022-11-10T23:22:44.521Z,7.20
2022-11-10T23:25:31.041Z,7.30
2022-11-10T23:28:18.912Z,7.40
2022-11-10T23:31:07.261Z,7.30
2022-11-10T23:33:55.148Z,7.30
2022-11-10T23:36:41.888Z,7.40
2022-11-10T23:39:28.380Z,7.40
2022-11-10T23:42:15.204Z,7.30
2022-11-10T23:45:03.217Z,7.30
2022-11-10T23:47:49.582Z,7.30
2022-11-10T23:50:35.935Z,7.30
2022-11-10T23:53:23.184Z,7.30
2022-11-10T23:56:12.607Z,7.30
2022-11-10T23:58:58.832Z,7.20
